createdAt,value
2023-12-14T00:00:20.445Z,79.10
2023-12-14T00:02:47.956Z,94.30
2023-12-14T00:05:16.971Z,84.40
2023-12-14T00:07:44.568Z,88.57
2023-12-14T00:10:14.228Z,88.77
2023-12-14T00:12:41.899Z,84.50
2023-12-14T00:15:10.031Z,83.27
2023-12-14T00:17:38.046Z,76.37
2023-12-14T00:20:06.894Z,80.70
2023-12-14T00:22:36.120Z,79.17
2023-12-14T00:25:03.891Z,78.23
2023-12-14T00:27:31.460Z,67.60
2023-12-14T00:29:59.025Z,83.43
2023-12-14T00:32:26.602Z,74.87
2023-12-14T00:34:54.339Z,65.47
2023-12-14T00:37:22.081Z,82.97
2023-12-14T00:39:50.970Z,91.07
2023-12-14T00:42:18.568Z,72.93
2023-12-14T00:44:46.132Z,93.00
2023-12-14T00:47:13.743Z,76.50
2023-12-14T00:49:41.387Z,68.73
2023-12-14T00:52:08.971Z,69.43
2023-12-14T00:54:36.673Z,88.50
2023-12-14T00:57:06.026Z,75.83
2023-12-14T00:59:33.624Z,88.40
2023-12-14T01:02:01.345Z,87.57
2023-12-14T01:04:29.026Z,73.13
2023-12-14T01:06:56.616Z,80.93
2023-12-14T01:09:24.206Z,93.57
2023-12-14T01:11:51.914Z,106.20
2023-12-14T01:14:20.878Z,105.17
2023-12-14T01:16:48.529Z,109.40
2023-12-14T01:19:16.234Z,102.83
2023-12-14T01:21:43.875Z,92.67
2023-12-14T01:24:11.942Z,116.67
2023-12-14T01:26:39.531Z,125.60
2023-12-14T01:29:07.137Z,116.80
2023-12-14T01:31:36.125Z,119.70
2023-12-14T01:34:04.239Z,127.13
2023-12-14T01:36:31.867Z,114.57
2023-12-14T01:38:59.436Z,111.07
2023-12-14T01:41:26.990Z,106.03
2023-12-14T01:43:54.542Z,105.87
2023-12-14T01:46:22.083Z,92.07
2023-12-14T01:48:51.188Z,104.40
2023-12-14T01:51:18.820Z,107.17
2023-12-14T01:53:46.619Z,116.13
2023-12-14T01:56:14.245Z,113.80
2023-12-14T01:58:41.810Z,133.57
2023-12-14T02:01:18.088Z,124.20
2023-12-14T02:03:50.665Z,127.47
2023-12-14T02:06:19.583Z,139.17
2023-12-14T02:08:47.164Z,110.33
2023-12-14T02:11:14.764Z,114.53
2023-12-14T02:13:42.446Z,117.80
2023-12-14T02:16:10.480Z,123.23
2023-12-14T02:18:38.073Z,134.20
2023-12-14T02:21:06.367Z,103.60
2023-12-14T02:23:35.533Z,128.83
2023-12-14T02:26:03.276Z,125.23
2023-12-14T02:28:30.955Z,131.30
2023-12-14T02:30:58.487Z,106.93
2023-12-14T02:33:25.994Z,132.60
2023-12-14T02:35:53.662Z,119.77
2023-12-14T02:38:21.341Z,151.50
2023-12-14T02:40:51.466Z,121.93
2023-12-14T02:43:19.027Z,126.23
2023-12-14T02:45:46.645Z,114.57
2023-12-14T02:48:14.360Z,134.30
2023-12-14T02:50:41.965Z,126.00
2023-12-14T02:53:09.641Z,139.43
2023-12-14T02:55:37.500Z,130.13
2023-12-14T02:58:06.389Z,126.60
2023-12-14T03:00:33.989Z,106.60
2023-12-14T03:03:01.576Z,125.10
2023-12-14T03:05:29.185Z,122.23
2023-12-14T03:07:56.812Z,117.20
2023-12-14T03:10:24.359Z,127.17
2023-12-14T03:12:52.956Z,103.53
2023-12-14T03:15:21.958Z,117.33
2023-12-14T03:17:49.607Z,123.67
2023-12-14T03:20:17.404Z,113.67
2023-12-14T03:22:45.110Z,96.53
2023-12-14T03:25:13.028Z,111.67
2023-12-14T03:27:40.583Z,107.07
2023-12-14T03:30:11.190Z,114.40
2023-12-14T03:32:40.661Z,85.33
2023-12-14T03:35:09.484Z,123.33
2023-12-14T03:37:37.323Z,116.83
2023-12-14T03:40:05.840Z,94.97
2023-12-14T03:42:33.662Z,94.63
2023-12-14T03:45:01.451Z,94.23
2023-12-14T03:47:28.986Z,97.27
2023-12-14T03:49:58.202Z,92.97
2023-12-14T03:52:26.829Z,79.27
2023-12-14T03:54:54.378Z,88.10
2023-12-14T03:57:21.932Z,74.70
2023-12-14T03:59:49.459Z,82.93
2023-12-14T04:02:17.022Z,81.23
2023-12-14T04:04:44.706Z,91.63
2023-12-14T04:07:13.621Z,101.67
2023-12-14T04:09:41.193Z,101.27
2023-12-14T04:12:08.800Z,98.77
2023-12-14T04:14:36.315Z,110.07
2023-12-14T04:17:03.900Z,103.27
2023-12-14T04:19:31.472Z,89.53
2023-12-14T04:21:59.023Z,93.70
2023-12-14T04:24:28.733Z,91.13
2023-12-14T04:26:56.264Z,105.40
2023-12-14T04:29:23.822Z,116.30
2023-12-14T04:31:51.400Z,101.97
2023-12-14T04:34:20.149Z,100.43
2023-12-14T04:36:49.099Z,105.03
2023-12-14T04:39:17.724Z,118.63
2023-12-14T04:41:46.660Z,118.57
2023-12-14T04:44:14.214Z,110.17
2023-12-14T04:46:41.804Z,114.00
2023-12-14T04:49:09.414Z,109.17
2023-12-14T04:51:36.963Z,115.13
2023-12-14T04:54:04.741Z,108.03
2023-12-14T04:56:32.299Z,118.97
2023-12-14T04:59:01.231Z,116.77
2023-12-14T05:01:30.486Z,117.73
2023-12-14T05:03:59.265Z,103.33
2023-12-14T05:06:27.102Z,115.40
2023-12-14T05:08:54.759Z,115.90
2023-12-14T05:11:22.446Z,113.13
2023-12-14T05:13:50.024Z,88.60
2023-12-14T05:16:18.982Z,92.73
2023-12-14T05:18:46.584Z,106.57
2023-12-14T05:21:19.226Z,91.70
2023-12-14T05:23:46.923Z,95.30
2023-12-14T05:26:14.531Z,109.53
2023-12-14T05:28:42.817Z,91.33
2023-12-14T05:31:10.466Z,87.47
2023-12-14T05:33:40.410Z,101.20
2023-12-14T05:36:11.640Z,88.50
2023-12-14T05:38:40.713Z,141.77
2023-12-14T05:41:08.814Z,142.90
2023-12-14T05:43:37.503Z,123.80
2023-12-14T05:46:05.706Z,127.43
2023-12-14T05:48:33.398Z,128.67
2023-12-14T05:51:02.684Z,142.43
2023-12-14T05:53:30.293Z,125.37
2023-12-14T05:55:57.879Z,138.23
2023-12-14T05:58:25.432Z,130.33
2023-12-14T06:00:52.971Z,83.07
2023-12-14T06:03:20.483Z,121.27
2023-12-14T06:05:48.157Z,104.37
2023-12-14T06:08:17.150Z,114.87
2023-12-14T06:10:44.830Z,111.53
2023-12-14T06:13:12.329Z,146.57
2023-12-14T06:15:39.816Z,108.67
2023-12-14T06:18:07.451Z,115.40
2023-12-14T06:20:35.088Z,132.37
2023-12-14T06:23:02.640Z,139.20
2023-12-14T06:25:31.601Z,126.80
2023-12-14T06:27:59.215Z,123.33
2023-12-14T06:30:26.772Z,132.07
2023-12-14T06:32:54.356Z,133.00
2023-12-14T06:35:22.702Z,138.27
2023-12-14T06:37:50.498Z,161.00
2023-12-14T06:40:18.498Z,147.90
2023-12-14T06:42:47.397Z,163.03
2023-12-14T06:45:15.370Z,153.53
2023-12-14T06:47:44.524Z,146.27
2023-12-14T06:50:12.391Z,152.37
2023-12-14T06:52:40.015Z,125.53
2023-12-14T06:55:08.512Z,107.77
2023-12-14T06:57:36.436Z,125.93
2023-12-14T07:00:06.118Z,101.73
2023-12-14T07:02:34.399Z,78.50
2023-12-14T07:05:02.205Z,74.07
2023-12-14T07:07:29.807Z,78.43
2023-12-14T07:09:57.328Z,77.17
2023-12-14T07:12:24.875Z,100.90
2023-12-14T07:14:52.443Z,69.37
2023-12-14T07:17:21.532Z,79.23
2023-12-14T07:19:49.234Z,75.97
2023-12-14T07:22:16.744Z,68.97
2023-12-14T07:24:52.253Z,55.87
2023-12-14T07:27:20.685Z,51.00
2023-12-14T07:29:48.222Z,51.93
2023-12-14T07:32:15.786Z,37.30
2023-12-14T07:34:45.480Z,44.47
2023-12-14T07:37:13.358Z,47.60
2023-12-14T07:39:40.915Z,31.40
2023-12-14T07:42:08.497Z,31.70
2023-12-14T07:44:36.601Z,49.30
2023-12-14T07:47:04.420Z,50.27
2023-12-14T07:49:31.988Z,60.80
2023-12-14T07:52:00.863Z,69.80
2023-12-14T07:54:29.437Z,70.83
2023-12-14T07:56:57.011Z,71.33
2023-12-14T07:59:24.589Z,69.23
2023-12-14T08:01:52.254Z,70.60
2023-12-14T08:04:19.891Z,66.13
2023-12-14T08:06:47.455Z,64.47
2023-12-14T08:09:16.311Z,60.10
2023-12-14T08:11:44.037Z,51.03
2023-12-14T08:14:11.614Z,50.67
2023-12-14T08:16:39.162Z,41.50
2023-12-14T08:19:06.716Z,33.97
2023-12-14T08:21:34.433Z,17.37
2023-12-14T08:24:01.955Z,16.00
2023-12-14T08:26:30.845Z,19.47
2023-12-14T08:28:58.358Z,18.97
2023-12-14T08:31:26.208Z,17.57
2023-12-14T08:33:54.329Z,16.37
2023-12-14T08:36:21.914Z,15.33
2023-12-14T08:38:49.424Z,14.73
2023-12-14T08:41:17.581Z,16.77
2023-12-14T08:43:46.609Z,18.17
2023-12-14T08:46:14.362Z,19.93
2023-12-14T08:48:41.981Z,40.30
2023-12-14T08:51:09.524Z,35.67
2023-12-14T08:53:37.039Z,27.77
2023-12-14T08:56:04.968Z,44.07
2023-12-14T08:58:32.508Z,81.10
2023-12-14T09:01:01.465Z,68.57
2023-12-14T09:03:29.143Z,80.80
2023-12-14T09:05:59.702Z,92.83
2023-12-14T09:08:27.351Z,50.57
2023-12-14T09:10:54.959Z,57.03
2023-12-14T09:13:22.475Z,47.27
2023-12-14T09:15:53.438Z,49.73
2023-12-14T09:18:23.843Z,51.87
2023-12-14T09:20:51.771Z,44.37
2023-12-14T09:23:20.285Z,47.00
2023-12-14T09:25:48.043Z,52.83
2023-12-14T09:28:15.613Z,49.33
2023-12-14T09:30:43.209Z,48.92
2023-12-14T09:33:10.929Z,46.00
2023-12-14T09:35:39.847Z,51.90
2023-12-14T09:38:08.913Z,45.87
2023-12-14T09:40:36.534Z,46.97
2023-12-14T09:43:07.455Z,50.97
2023-12-14T09:45:37.076Z,55.27
2023-12-14T09:48:05.240Z,50.43
2023-12-14T09:50:34.651Z,50.37
2023-12-14T09:53:03.556Z,46.23
2023-12-14T09:55:32.345Z,56.00
2023-12-14T09:57:59.888Z,61.77
2023-12-14T10:00:38.932Z,51.70
2023-12-14T10:03:27.228Z,51.07
2023-12-14T10:05:56.297Z,53.23
2023-12-14T10:08:26.383Z,54.10
2023-12-14T10:10:56.407Z,49.40
2023-12-14T10:13:38.573Z,49.07
2023-12-14T10:16:06.627Z,48.10
2023-12-14T10:18:36.941Z,44.73
2023-12-14T10:21:04.863Z,53.60
2023-12-14T10:23:34.015Z,56.00
2023-12-14T10:26:01.783Z,48.00
2023-12-14T10:28:29.908Z,44.37
2023-12-14T10:30:57.499Z,43.07
2023-12-14T10:33:25.125Z,45.10
2023-12-14T10:35:53.053Z,33.28
2023-12-14T10:38:22.260Z,39.23
2023-12-14T10:40:54.222Z,48.00
2023-12-14T10:43:42.745Z,54.00
2023-12-14T10:46:12.101Z,45.20
2023-12-14T10:48:42.563Z,49.30
2023-12-14T10:51:11.536Z,46.97
2023-12-14T10:53:40.044Z,37.15
2023-12-14T10:56:13.274Z,38.85
2023-12-14T10:58:48.795Z,23.70
2023-12-14T11:01:17.624Z,24.70
2023-12-14T11:03:46.175Z,16.75
2023-12-14T11:06:30.047Z,20.23
2023-12-14T11:08:59.318Z,27.53
2023-12-14T11:11:32.111Z,16.77
2023-12-14T11:13:59.773Z,27.37
2023-12-14T11:16:30.177Z,29.80
2023-12-14T11:19:26.808Z,25.47
2023-12-14T11:22:25.799Z,24.97
2023-12-14T11:24:55.186Z,29.98
2023-12-14T11:27:28.949Z,29.87
2023-12-14T11:29:56.485Z,30.35
2023-12-14T11:32:24.128Z,18.13
2023-12-14T11:34:51.694Z,29.20
2023-12-14T11:37:18.757Z,37.87
2023-12-14T11:39:47.939Z,48.20
2023-12-14T11:42:19.193Z,41.37
2023-12-14T11:44:48.345Z,39.03
2023-12-14T11:47:16.172Z,31.13
2023-12-14T11:49:44.297Z,39.20
2023-12-14T11:52:12.246Z,43.80
2023-12-14T11:54:39.801Z,41.77
2023-12-14T11:57:10.053Z,41.33
2023-12-14T11:59:39.122Z,41.20
2023-12-14T12:02:08.802Z,40.60
2023-12-14T12:04:37.403Z,52.13
2023-12-14T12:07:06.797Z,42.33
2023-12-14T12:09:36.097Z,40.90
2023-12-14T12:12:04.283Z,40.87
2023-12-14T12:14:31.873Z,35.85
2023-12-14T12:16:59.449Z,37.13
2023-12-14T12:19:28.440Z,46.60
2023-12-14T12:21:56.009Z,67.87
2023-12-14T12:24:27.214Z,66.43
2023-12-14T12:26:55.328Z,65.70
2023-12-14T12:29:23.014Z,73.87
2023-12-14T12:31:50.681Z,62.50
2023-12-14T12:34:18.314Z,55.47
2023-12-14T12:36:47.164Z,54.13
2023-12-14T12:39:14.712Z,48.67
2023-12-14T12:41:42.305Z,41.93
2023-12-14T12:44:10.526Z,41.53
2023-12-14T12:46:38.181Z,36.13
2023-12-14T12:49:06.868Z,27.33
2023-12-14T12:51:36.194Z,26.20
2023-12-14T12:54:12.458Z,24.95
2023-12-14T12:56:41.386Z,19.20
2023-12-14T12:59:10.336Z,23.27
2023-12-14T13:01:39.208Z,34.23
2023-12-14T13:04:07.479Z,40.50
2023-12-14T13:06:35.000Z,45.10
2023-12-14T13:09:02.491Z,48.90
2023-12-14T13:11:31.435Z,23.40
2023-12-14T13:13:58.976Z,22.97
2023-12-14T13:16:28.715Z,20.17
2023-12-14T13:18:58.740Z,15.27
2023-12-14T13:21:26.413Z,23.47
2023-12-14T13:23:54.193Z,20.17
2023-12-14T13:26:21.805Z,10.90
2023-12-14T13:28:50.751Z,11.97
2023-12-14T13:31:18.302Z,12.25
2023-12-14T13:33:47.676Z,13.05
2023-12-14T13:36:15.374Z,13.38
2023-12-14T13:38:43.151Z,13.13
2023-12-14T13:41:10.881Z,13.48
2023-12-14T13:43:38.423Z,13.73
2023-12-14T13:46:18.089Z,14.57
2023-12-14T13:48:49.353Z,14.73
2023-12-14T13:51:16.936Z,14.83
2023-12-14T13:53:44.782Z,18.63
2023-12-14T13:56:12.543Z,25.00
2023-12-14T13:58:40.204Z,28.17
2023-12-14T14:01:09.192Z,32.20
2023-12-14T14:03:38.864Z,39.08
2023-12-14T14:06:07.134Z,42.80
2023-12-14T14:08:34.821Z,45.17
2023-12-14T14:11:02.941Z,48.87
2023-12-14T14:13:31.617Z,44.87
2023-12-14T14:15:59.113Z,56.20
2023-12-14T14:18:28.055Z,65.10
2023-12-14T14:20:55.973Z,71.97
2023-12-14T14:23:23.622Z,71.27
2023-12-14T14:25:54.916Z,76.20
2023-12-14T14:28:25.587Z,76.50
2023-12-14T14:30:54.132Z,73.50
2023-12-14T14:33:22.241Z,73.20
2023-12-14T14:35:52.018Z,71.20
2023-12-14T14:38:20.630Z,70.97
2023-12-14T14:40:48.165Z,61.50
2023-12-14T14:43:16.030Z,56.33
2023-12-14T14:45:45.024Z,53.87
2023-12-14T14:48:12.670Z,51.27
2023-12-14T14:50:40.222Z,46.57
2023-12-14T14:53:09.149Z,48.57
2023-12-14T14:55:36.826Z,46.20
2023-12-14T14:58:04.380Z,49.03
2023-12-14T15:00:33.441Z,48.53
2023-12-14T15:03:04.345Z,57.43
2023-12-14T15:05:32.855Z,59.97
2023-12-14T15:08:00.652Z,61.10
2023-12-14T15:10:29.945Z,67.00
2023-12-14T15:12:57.441Z,74.37
2023-12-14T15:15:24.970Z,79.90
2023-12-14T15:17:52.541Z,75.20
2023-12-14T15:20:20.336Z,74.37
2023-12-14T15:22:47.906Z,79.90
2023-12-14T15:25:17.206Z,75.07
2023-12-14T15:27:46.179Z,71.67
2023-12-14T15:30:14.803Z,69.23
2023-12-14T15:32:42.881Z,77.07
2023-12-14T15:35:11.104Z,68.87
2023-12-14T15:37:38.762Z,63.83
2023-12-14T15:40:07.525Z,74.00
2023-12-14T15:42:35.250Z,56.37
2023-12-14T15:45:09.489Z,62.97
2023-12-14T15:47:37.811Z,59.23
2023-12-14T15:50:06.767Z,63.03
2023-12-14T15:52:34.550Z,64.87
2023-12-14T15:55:02.435Z,84.20
2023-12-14T15:57:30.638Z,73.53
2023-12-14T15:59:58.378Z,71.87
2023-12-14T16:02:27.249Z,73.00
2023-12-14T16:04:54.875Z,73.10
2023-12-14T16:07:22.679Z,84.40
2023-12-14T16:09:50.529Z,122.63
2023-12-14T16:12:18.041Z,186.00
2023-12-14T16:14:45.552Z,186.43
2023-12-14T16:17:13.096Z,149.77
2023-12-14T16:19:42.020Z,85.87
2023-12-14T16:22:09.580Z,147.00
2023-12-14T16:24:37.094Z,156.90
2023-12-14T16:27:05.215Z,195.37
2023-12-14T16:29:33.749Z,199.93
2023-12-14T16:32:01.450Z,175.63
2023-12-14T16:34:29.097Z,157.27
2023-12-14T16:36:58.027Z,88.17
2023-12-14T16:39:28.724Z,57.53
2023-12-14T16:41:56.260Z,44.83
2023-12-14T16:44:25.134Z,42.80
2023-12-14T16:46:53.046Z,43.40
2023-12-14T16:49:20.653Z,30.77
2023-12-14T16:51:48.293Z,27.67
2023-12-14T16:54:17.159Z,29.33
2023-12-14T16:56:44.753Z,36.03
2023-12-14T16:59:14.334Z,42.27
2023-12-14T17:01:42.959Z,53.43
2023-12-14T17:04:10.595Z,63.50
2023-12-14T17:06:38.105Z,53.30
2023-12-14T17:09:05.687Z,99.53
2023-12-14T17:11:34.622Z,86.70
2023-12-14T17:14:02.196Z,89.37
2023-12-14T17:16:29.904Z,94.73
2023-12-14T17:18:57.517Z,87.53
2023-12-14T17:21:27.405Z,109.90
2023-12-14T17:23:56.710Z,115.43
2023-12-14T17:26:26.925Z,116.67
2023-12-14T17:28:58.204Z,108.37
2023-12-14T17:31:26.918Z,116.00
2023-12-14T17:33:55.168Z,103.43
2023-12-14T17:36:22.746Z,89.70
2023-12-14T17:38:51.183Z,88.23
2023-12-14T17:41:18.854Z,107.57
2023-12-14T17:43:46.443Z,111.77
2023-12-14T17:46:16.252Z,109.13
2023-12-14T17:48:44.247Z,125.33
2023-12-14T17:51:11.831Z,126.30
2023-12-14T17:53:39.860Z,115.27
2023-12-14T17:56:08.379Z,86.17
2023-12-14T17:58:35.940Z,84.13
2023-12-14T18:01:05.915Z,103.10
2023-12-14T18:03:35.341Z,86.50
2023-12-14T18:06:03.818Z,78.47
2023-12-14T18:08:31.708Z,74.93
2023-12-14T18:10:59.308Z,84.40
2023-12-14T18:13:27.328Z,76.83
2023-12-14T18:15:54.868Z,49.03
2023-12-14T18:18:22.771Z,100.57
2023-12-14T18:20:51.851Z,93.77
2023-12-14T18:23:19.459Z,86.17
2023-12-14T18:25:47.301Z,94.90
2023-12-14T18:28:15.236Z,94.70
2023-12-14T18:30:42.934Z,102.00
2023-12-14T18:33:11.812Z,47.17
2023-12-14T18:35:39.377Z,31.60
2023-12-14T18:38:08.716Z,53.43
2023-12-14T18:40:36.315Z,42.40
2023-12-14T18:43:03.897Z,20.73
2023-12-14T18:45:31.440Z,24.13
2023-12-14T18:47:59.177Z,22.30
2023-12-14T18:50:26.902Z,25.23
2023-12-14T18:52:57.881Z,23.03
2023-12-14T18:55:27.050Z,27.50
2023-12-14T18:57:55.322Z,24.43
2023-12-14T19:00:24.121Z,25.70
2023-12-14T19:02:51.696Z,21.87
2023-12-14T19:05:24.708Z,16.70
2023-12-14T19:07:52.791Z,21.07
2023-12-14T19:10:21.347Z,24.47
2023-12-14T19:12:50.471Z,39.73
2023-12-14T19:15:18.586Z,44.63
2023-12-14T19:17:46.223Z,43.50
2023-12-14T19:20:14.579Z,41.57
2023-12-14T19:22:42.281Z,67.23
2023-12-14T19:25:12.099Z,92.13
2023-12-14T19:27:41.009Z,119.97
2023-12-14T19:30:14.613Z,152.40
2023-12-14T19:32:42.412Z,140.03
2023-12-14T19:35:10.388Z,65.33
2023-12-14T19:37:38.327Z,52.20
2023-12-14T19:40:07.275Z,66.37
2023-12-14T19:42:35.682Z,125.43
2023-12-14T19:45:03.980Z,102.23
2023-12-14T19:47:35.586Z,117.07
2023-12-14T19:50:04.352Z,83.13
2023-12-14T19:52:31.943Z,83.47
2023-12-14T19:54:59.602Z,110.10
2023-12-14T19:57:27.348Z,89.17
2023-12-14T19:59:54.880Z,109.83
2023-12-14T20:02:22.569Z,119.53
2023-12-14T20:04:51.570Z,89.80
2023-12-14T20:07:20.253Z,64.90
2023-12-14T20:09:57.417Z,52.00
2023-12-14T20:12:29.248Z,47.37
2023-12-14T20:14:56.795Z,52.53
2023-12-14T20:17:24.446Z,53.80
2023-12-14T20:19:53.433Z,69.87
2023-12-14T20:22:21.004Z,60.90
2023-12-14T20:24:49.187Z,76.90
2023-12-14T20:27:17.563Z,73.70
2023-12-14T20:29:45.308Z,64.93
2023-12-14T20:32:12.909Z,60.63
2023-12-14T20:34:40.680Z,52.37
2023-12-14T20:37:09.697Z,59.03
2023-12-14T20:39:37.312Z,57.70
2023-12-14T20:42:05.462Z,62.40
2023-12-14T20:44:33.041Z,98.27
2023-12-14T20:47:00.611Z,63.63
2023-12-14T20:49:28.271Z,49.40
2023-12-14T20:51:55.910Z,42.67
2023-12-14T20:54:24.819Z,50.90
2023-12-14T20:56:52.459Z,44.13
2023-12-14T20:59:20.100Z,45.80
2023-12-14T21:01:47.798Z,46.97
2023-12-14T21:04:15.474Z,41.33
2023-12-14T21:06:43.172Z,44.40
2023-12-14T21:09:10.809Z,42.47
2023-12-14T21:11:39.701Z,43.67
2023-12-14T21:14:13.041Z,49.63
2023-12-14T21:16:40.721Z,39.90
2023-12-14T21:19:08.360Z,30.30
2023-12-14T21:21:36.016Z,32.50
2023-12-14T21:24:03.648Z,33.53
2023-12-14T21:26:36.723Z,32.03
2023-12-14T21:29:07.344Z,36.67
2023-12-14T21:31:35.077Z,43.80
2023-12-14T21:34:02.826Z,40.60
2023-12-14T21:36:30.383Z,40.03
2023-12-14T21:38:57.953Z,38.27
2023-12-14T21:41:25.594Z,40.77
2023-12-14T21:43:53.207Z,39.80
2023-12-14T21:46:22.123Z,42.03
2023-12-14T21:48:49.698Z,46.73
2023-12-14T21:51:17.319Z,46.37
2023-12-14T21:53:44.875Z,45.47
2023-12-14T21:56:12.550Z,46.73
2023-12-14T21:58:40.604Z,49.37
2023-12-14T22:01:08.191Z,43.53
2023-12-14T22:03:37.093Z,46.07
2023-12-14T22:06:04.827Z,48.17
2023-12-14T22:08:32.430Z,43.67
2023-12-14T22:11:00.045Z,44.13
2023-12-14T22:13:28.152Z,46.67
2023-12-14T22:15:55.696Z,43.40
2023-12-14T22:18:23.353Z,44.00
2023-12-14T22:20:52.268Z,42.60
2023-12-14T22:23:19.828Z,47.40
2023-12-14T22:25:47.513Z,43.60
2023-12-14T22:28:15.142Z,39.97
2023-12-14T22:30:42.751Z,46.43
2023-12-14T22:33:10.483Z,38.60
2023-12-14T22:35:38.063Z,49.73
2023-12-14T22:38:06.976Z,44.77
2023-12-14T22:40:34.848Z,45.07
2023-12-14T22:43:02.408Z,51.80
2023-12-14T22:45:31.479Z,48.63
2023-12-14T22:47:59.928Z,43.23
2023-12-14T22:50:29.400Z,42.93
2023-12-14T22:52:57.089Z,49.13
2023-12-14T22:55:26.164Z,47.80
2023-12-14T22:57:54.224Z,39.23
2023-12-14T23:00:27.956Z,42.57
2023-12-14T23:02:56.205Z,42.60
2023-12-14T23:05:23.868Z,44.87
2023-12-14T23:07:51.760Z,45.07
2023-12-14T23:10:19.707Z,48.77
2023-12-14T23:12:48.838Z,42.33
2023-12-14T23:15:16.591Z,46.87
2023-12-14T23:17:44.479Z,45.03
2023-12-14T23:20:13.145Z,44.43
2023-12-14T23:22:40.758Z,50.63
2023-12-14T23:25:09.136Z,47.20
2023-12-14T23:27:37.042Z,45.60
2023-12-14T23:30:07.577Z,38.83
2023-12-14T23:32:35.699Z,41.33
2023-12-14T23:35:03.324Z,41.57
2023-12-14T23:37:30.904Z,39.70
2023-12-14T23:39:58.429Z,44.13
2023-12-14T23:42:25.956Z,44.97
2023-12-14T23:44:53.554Z,44.23
2023-12-14T23:47:22.680Z,41.67
2023-12-14T23:49:50.317Z,46.43
2023-12-14T23:52:17.900Z,46.90
2023-12-14T23:54:45.551Z,46.70
2023-12-14T23:57:13.224Z,48.40
2023-12-14T23:59:40.758Z,47.80
